createdAt,value
2023-03-30T00:01:22.185Z,10.23
2023-03-30T00:03:51.361Z,13.02
2023-03-30T00:06:23.212Z,11.18
2023-03-30T00:08:57.310Z,12.07
2023-03-30T00:11:27.667Z,6.18
2023-03-30T00:13:56.845Z,9.50
2023-03-30T00:16:26.151Z,8.82
2023-03-30T00:18:55.741Z,9.63
2023-03-30T00:21:28.170Z,5.95
2023-03-30T00:23:57.232Z,6.68
2023-03-30T00:26:27.265Z,5.90
2023-03-30T00:28:56.443Z,8.65
2023-03-30T00:31:25.621Z,7.20
2023-03-30T00:33:54.900Z,4.55
2023-03-30T00:36:26.128Z,6.00
2023-03-30T00:38:55.331Z,7.18
2023-03-30T00:41:24.880Z,5.25
2023-03-30T00:44:01.209Z,8.75
2023-03-30T00:46:31.245Z,10.02
2023-03-30T00:49:04.165Z,11.63
2023-03-30T00:51:38.392Z,10.98
2023-03-30T00:54:12.318Z,15.23
2023-03-30T00:56:41.833Z,10.93
2023-03-30T00:59:11.293Z,17.58
2023-03-30T01:01:41.946Z,18.77
2023-03-30T01:04:13.897Z,14.77
2023-03-30T01:06:47.125Z,17.25
2023-03-30T01:09:17.095Z,15.93
2023-03-30T01:11:46.617Z,21.52
2023-03-30T01:14:17.663Z,16.50
2023-03-30T01:16:53.835Z,15.95
2023-03-30T01:19:54.867Z,17.52
2023-03-30T01:22:57.000Z,19.70
2023-03-30T01:25:48.336Z,22.05
2023-03-30T01:28:35.972Z,19.98
2023-03-30T01:31:27.543Z,23.95
2023-03-30T01:36:51.055Z,18.05
2023-03-30T01:39:33.314Z,20.27
2023-03-30T01:42:12.979Z,16.50
2023-03-30T01:44:48.713Z,25.08
2023-03-30T01:47:23.495Z,17.73
2023-03-30T01:50:00.229Z,21.48
2023-03-30T01:52:37.142Z,20.85
2023-03-30T01:55:14.262Z,23.00
2023-03-30T01:57:49.279Z,16.88
2023-03-30T02:00:21.338Z,17.50
2023-03-30T02:02:54.519Z,17.15
2023-03-30T02:05:27.587Z,26.20
2023-03-30T02:08:02.539Z,20.23
2023-03-30T02:10:36.222Z,16.00
2023-03-30T02:13:07.484Z,26.80
2023-03-30T02:15:41.116Z,17.95
2023-03-30T02:18:11.316Z,17.50
2023-03-30T02:20:40.868Z,14.93
2023-03-30T02:23:11.562Z,19.73
2023-03-30T02:25:42.412Z,23.23
2023-03-30T02:28:11.820Z,21.10
2023-03-30T02:30:45.207Z,21.52
2023-03-30T02:33:23.040Z,20.65
2023-03-30T02:36:16.658Z,19.52
2023-03-30T02:39:05.491Z,19.58
2023-03-30T02:42:00.748Z,13.90
2023-03-30T02:44:38.936Z,18.52
2023-03-30T02:47:13.523Z,13.65
2023-03-30T02:49:54.533Z,10.70
2023-03-30T02:52:34.030Z,13.93
2023-03-30T02:55:13.654Z,17.40
2023-03-30T02:58:03.226Z,16.40
2023-03-30T03:00:53.325Z,13.18
2023-03-30T03:03:31.765Z,17.25
2023-03-30T03:06:02.946Z,15.85
2023-03-30T03:08:39.830Z,17.33
2023-03-30T03:11:11.854Z,19.27
2023-03-30T03:13:43.112Z,15.38
2023-03-30T03:16:15.604Z,13.82
2023-03-30T03:19:10.955Z,17.23
2023-03-30T03:21:41.559Z,15.48
2023-03-30T03:24:13.490Z,14.18
2023-03-30T03:27:01.314Z,17.33
2023-03-30T03:29:36.428Z,12.05
2023-03-30T03:32:05.871Z,13.43
2023-03-30T03:34:44.848Z,12.45
2023-03-30T03:37:15.445Z,17.83
2023-03-30T03:39:46.591Z,14.82
2023-03-30T03:42:17.340Z,21.85
2023-03-30T03:45:04.905Z,15.63
2023-03-30T03:47:34.884Z,13.95
2023-03-30T03:50:07.021Z,18.02
2023-03-30T03:52:36.168Z,18.77
2023-03-30T03:55:06.367Z,14.13
2023-03-30T03:57:36.860Z,18.50
2023-03-30T04:00:15.904Z,18.70
2023-03-30T04:02:47.772Z,18.08
2023-03-30T04:05:16.980Z,15.68
2023-03-30T04:07:47.071Z,15.20
2023-03-30T04:10:16.740Z,15.38
2023-03-30T04:13:08.529Z,16.23
2023-03-30T04:15:59.154Z,15.60
2023-03-30T04:18:49.180Z,20.60
2023-03-30T04:21:21.822Z,21.20
2023-03-30T04:23:53.456Z,20.42
2023-03-30T04:26:48.955Z,15.85
2023-03-30T04:29:41.187Z,25.90
2023-03-30T04:33:03.984Z,13.13
2023-03-30T04:35:51.869Z,18.85
2023-03-30T04:38:39.416Z,21.08
2023-03-30T04:41:34.206Z,19.25
2023-03-30T04:44:22.168Z,18.67
2023-03-30T04:47:04.095Z,23.08
2023-03-30T04:49:52.830Z,15.88
2023-03-30T04:52:40.544Z,15.35
2023-03-30T04:55:28.116Z,20.67
2023-03-30T04:58:16.732Z,21.38
2023-03-30T05:00:45.979Z,19.83
2023-03-30T05:03:33.554Z,15.07
2023-03-30T05:06:23.240Z,20.02
2023-03-30T05:09:30.790Z,16.83
2023-03-30T05:12:14.171Z,21.77
2023-03-30T05:14:54.291Z,17.38
2023-03-30T05:17:44.030Z,18.75
2023-03-30T05:20:39.430Z,21.85
2023-03-30T05:23:28.487Z,15.65
2023-03-30T05:26:19.095Z,24.45
2023-03-30T05:28:48.161Z,20.50
2023-03-30T05:31:23.126Z,18.92
2023-03-30T05:34:18.297Z,20.90
2023-03-30T05:36:58.459Z,19.13
2023-03-30T05:40:01.067Z,21.58
2023-03-30T05:42:46.270Z,23.30
2023-03-30T05:45:31.695Z,18.67
2023-03-30T05:48:00.909Z,15.50
2023-03-30T05:50:49.239Z,14.40
2023-03-30T05:53:28.827Z,15.65
2023-03-30T05:56:23.643Z,18.88
2023-03-30T05:58:57.332Z,19.95
2023-03-30T06:01:42.771Z,16.70
2023-03-30T06:04:11.947Z,20.90
2023-03-30T06:06:41.343Z,16.33
2023-03-30T06:09:11.746Z,19.50
2023-03-30T06:11:42.214Z,15.85
2023-03-30T06:14:20.823Z,17.98
2023-03-30T06:17:12.290Z,16.38
2023-03-30T06:19:44.539Z,12.85
2023-03-30T06:22:13.928Z,17.35
2023-03-30T06:24:53.708Z,18.17
2023-03-30T06:27:24.741Z,23.33
2023-03-30T06:29:54.128Z,20.38
2023-03-30T06:32:23.374Z,13.85
2023-03-30T06:35:15.867Z,20.15
2023-03-30T06:37:45.426Z,12.73
2023-03-30T06:40:15.300Z,18.38
2023-03-30T06:42:50.124Z,14.55
2023-03-30T06:45:28.582Z,19.17
2023-03-30T06:47:57.759Z,18.55
2023-03-30T06:50:27.183Z,16.83
2023-03-30T06:53:09.487Z,17.65
2023-03-30T06:55:46.669Z,14.73
2023-03-30T06:58:27.467Z,16.50
2023-03-30T07:00:57.013Z,13.38
2023-03-30T07:03:44.759Z,16.67
2023-03-30T07:06:28.731Z,16.55
2023-03-30T07:08:57.798Z,18.88
2023-03-30T07:11:28.201Z,23.52
2023-03-30T07:14:01.297Z,17.17
2023-03-30T07:16:30.516Z,7.63
2023-03-30T07:18:59.657Z,5.10
2023-03-30T07:21:28.714Z,2.80
2023-03-30T07:23:58.198Z,3.33
2023-03-30T07:26:33.163Z,3.30
2023-03-30T07:29:09.529Z,3.03
2023-03-30T07:31:41.835Z,2.67
2023-03-30T07:34:13.429Z,2.58
2023-03-30T07:36:49.078Z,5.07
2023-03-30T07:39:18.811Z,2.83
2023-03-30T07:41:49.894Z,2.75
2023-03-30T07:44:20.747Z,4.22
2023-03-30T07:46:49.882Z,4.55
2023-03-30T07:49:27.180Z,4.15
2023-03-30T07:51:56.448Z,5.30
2023-03-30T07:54:44.055Z,5.55
2023-03-30T07:57:22.784Z,3.47
2023-03-30T07:59:53.496Z,4.57
2023-03-30T08:02:42.937Z,8.23
2023-03-30T08:05:17.911Z,7.13
2023-03-30T08:08:10.852Z,8.23
2023-03-30T08:10:41.093Z,7.85
2023-03-30T08:13:12.453Z,7.05
2023-03-30T08:15:42.991Z,8.13
2023-03-30T08:18:13.152Z,4.50
2023-03-30T08:20:43.567Z,7.35
2023-03-30T08:23:13.745Z,6.80
2023-03-30T08:25:44.668Z,5.72
2023-03-30T08:28:15.099Z,8.27
2023-03-30T08:30:45.640Z,6.50
2023-03-30T08:33:14.946Z,9.45
2023-03-30T08:35:46.657Z,8.80
2023-03-30T08:38:17.664Z,12.88
2023-03-30T08:40:49.071Z,12.00
2023-03-30T08:43:32.982Z,12.07
2023-03-30T08:46:04.647Z,9.30
2023-03-30T08:48:37.922Z,9.18
2023-03-30T08:51:13.173Z,11.45
2023-03-30T08:53:42.457Z,7.60
2023-03-30T08:56:18.122Z,11.02
2023-03-30T08:58:57.150Z,9.07
2023-03-30T09:01:35.884Z,8.77
2023-03-30T09:04:18.222Z,8.80
2023-03-30T09:06:52.407Z,13.07
2023-03-30T09:09:24.539Z,14.95
2023-03-30T09:11:58.980Z,9.82
2023-03-30T09:14:35.173Z,11.38
2023-03-30T09:17:12.144Z,9.88
2023-03-30T09:19:50.424Z,12.48
2023-03-30T09:22:22.003Z,10.13
2023-03-30T09:24:51.918Z,9.63
2023-03-30T09:27:27.176Z,14.45
2023-03-30T09:30:03.587Z,10.90
2023-03-30T09:32:37.978Z,11.57
2023-03-30T09:35:15.049Z,15.45
2023-03-30T09:37:44.030Z,11.75
2023-03-30T09:40:28.011Z,12.70
2023-03-30T09:43:06.600Z,16.48
2023-03-30T09:45:37.102Z,9.27
2023-03-30T09:48:09.419Z,11.27
2023-03-30T09:50:40.660Z,12.98
2023-03-30T09:53:21.097Z,11.30
2023-03-30T09:56:01.260Z,11.45
2023-03-30T09:58:32.031Z,8.38
2023-03-30T10:01:08.314Z,10.95
2023-03-30T10:03:39.328Z,11.80
2023-03-30T10:06:10.356Z,10.57
2023-03-30T10:08:44.060Z,7.90
2023-03-30T10:11:13.401Z,9.98
2023-03-30T10:13:44.553Z,11.57
2023-03-30T10:16:24.358Z,9.82
2023-03-30T10:18:57.990Z,11.23
2023-03-30T10:21:31.726Z,5.00
2023-03-30T10:24:05.213Z,6.50
2023-03-30T10:26:36.465Z,9.75
2023-03-30T10:29:08.172Z,11.63
2023-03-30T10:31:39.716Z,9.98
2023-03-30T10:34:19.711Z,8.13
2023-03-30T10:36:54.521Z,11.40
2023-03-30T10:39:27.084Z,6.80
2023-03-30T10:41:59.688Z,7.07
2023-03-30T10:44:33.692Z,11.88
2023-03-30T10:47:18.591Z,11.73
2023-03-30T10:49:57.287Z,5.35
2023-03-30T10:52:37.807Z,8.23
2023-03-30T10:55:18.084Z,7.50
2023-03-30T10:57:54.627Z,8.73
2023-03-30T11:00:43.477Z,14.02
2023-03-30T11:03:18.108Z,13.38
2023-03-30T11:05:52.819Z,10.73
2023-03-30T11:08:28.491Z,8.50
2023-03-30T11:11:00.430Z,12.50
2023-03-30T11:13:33.128Z,11.48
2023-03-30T11:16:06.347Z,10.35
2023-03-30T11:18:41.332Z,11.10
2023-03-30T11:21:18.116Z,9.38
2023-03-30T11:23:53.305Z,9.55
2023-03-30T11:26:26.014Z,11.88
2023-03-30T11:29:04.687Z,6.32
2023-03-30T11:31:50.110Z,9.20
2023-03-30T11:34:32.265Z,8.88
2023-03-30T11:37:08.453Z,8.40
2023-03-30T11:39:41.448Z,6.68
2023-03-30T11:42:17.481Z,5.50
2023-03-30T11:44:46.555Z,4.35
2023-03-30T11:47:41.884Z,6.32
2023-03-30T11:50:31.560Z,6.38
2023-03-30T11:53:18.366Z,6.55
2023-03-30T11:56:06.890Z,7.03
2023-03-30T11:58:38.692Z,6.13
2023-03-30T12:01:33.774Z,5.15
2023-03-30T12:04:09.180Z,10.25
2023-03-30T12:06:41.256Z,3.92
2023-03-30T12:09:26.823Z,6.72
2023-03-30T12:12:06.998Z,7.13
2023-03-30T12:14:55.404Z,8.88
2023-03-30T12:17:48.662Z,8.35
2023-03-30T12:20:29.310Z,5.70
2023-03-30T12:23:03.621Z,6.88
2023-03-30T12:25:45.939Z,3.60
2023-03-30T12:28:16.963Z,5.97
2023-03-30T12:30:57.535Z,6.78
2023-03-30T12:33:35.323Z,5.75
2023-03-30T12:36:06.052Z,4.95
2023-03-30T12:38:43.585Z,5.32
2023-03-30T12:41:18.526Z,5.13
2023-03-30T12:44:31.686Z,4.53
2023-03-30T12:47:22.618Z,6.45
2023-03-30T12:50:05.779Z,4.88
2023-03-30T12:52:44.895Z,7.85
2023-03-30T12:55:31.149Z,9.20
2023-03-30T12:58:19.764Z,8.65
2023-03-30T13:01:12.071Z,5.13
2023-03-30T13:03:49.947Z,8.65
2023-03-30T13:06:30.086Z,10.20
2023-03-30T13:09:05.762Z,4.18
2023-03-30T13:11:46.082Z,6.50
2023-03-30T13:14:28.649Z,5.43
2023-03-30T13:17:17.870Z,4.90
2023-03-30T13:20:12.668Z,7.90
2023-03-30T13:23:01.108Z,5.13
2023-03-30T13:25:40.091Z,3.25
2023-03-30T13:28:49.490Z,5.57
2023-03-30T13:31:44.966Z,9.10
2023-03-30T13:34:25.180Z,6.65
2023-03-30T13:37:04.899Z,7.47
2023-03-30T13:39:41.773Z,4.78
2023-03-30T13:42:41.998Z,6.97
2023-03-30T13:45:22.961Z,6.85
2023-03-30T13:48:04.023Z,5.22
2023-03-30T13:50:35.348Z,4.35
2023-03-30T13:55:38.419Z,18.65
2023-03-30T13:58:13.468Z,22.50
2023-03-30T14:00:49.147Z,24.02
2023-03-30T14:03:39.559Z,21.92
2023-03-30T14:06:16.905Z,28.13
2023-03-30T14:08:48.946Z,19.60
2023-03-30T14:11:21.847Z,16.83
2023-03-30T14:13:53.449Z,10.63
2023-03-30T14:16:24.885Z,18.98
2023-03-30T14:19:09.851Z,16.92
2023-03-30T14:21:43.422Z,20.30
2023-03-30T14:24:16.831Z,16.05
2023-03-30T14:26:49.233Z,20.45
2023-03-30T14:29:30.499Z,22.58
2023-03-30T14:34:36.301Z,20.17
2023-03-30T14:37:07.564Z,25.70
2023-03-30T14:39:42.270Z,23.88
2023-03-30T14:42:17.877Z,22.27
2023-03-30T14:44:48.945Z,26.25
2023-03-30T14:47:21.728Z,20.67
2023-03-30T14:49:54.699Z,23.05
2023-03-30T14:52:26.573Z,22.30
2023-03-30T14:55:05.122Z,24.63
2023-03-30T14:57:38.867Z,21.00
2023-03-30T15:00:21.192Z,17.50
2023-03-30T15:02:53.619Z,19.52
2023-03-30T15:05:27.913Z,17.50
2023-03-30T15:07:57.368Z,21.10
2023-03-30T15:10:30.013Z,19.17
2023-03-30T15:12:59.227Z,22.48
2023-03-30T15:15:32.940Z,22.42
2023-03-30T15:18:04.850Z,22.75
2023-03-30T15:20:37.653Z,23.35
2023-03-30T15:23:06.838Z,18.83
2023-03-30T15:25:37.128Z,16.92
2023-03-30T15:28:10.913Z,19.35
2023-03-30T15:30:42.611Z,17.83
2023-03-30T15:33:22.193Z,19.13
2023-03-30T15:35:54.418Z,21.83
2023-03-30T15:38:31.982Z,20.25
2023-03-30T15:41:02.478Z,17.85
2023-03-30T15:43:33.817Z,20.88
2023-03-30T15:46:06.597Z,15.77
2023-03-30T15:48:42.807Z,17.05
2023-03-30T15:51:20.731Z,19.25
2023-03-30T15:53:55.180Z,19.33
2023-03-30T15:56:28.758Z,19.00
2023-03-30T15:58:59.518Z,19.50
2023-03-30T16:01:41.782Z,20.00
2023-03-30T16:04:16.141Z,18.80
2023-03-30T16:06:47.580Z,19.70
2023-03-30T16:09:17.123Z,21.10
2023-03-30T16:11:46.997Z,17.83
2023-03-30T16:14:20.199Z,19.75
2023-03-30T16:16:49.889Z,24.42
2023-03-30T16:19:21.002Z,19.20
2023-03-30T16:21:53.328Z,19.52
2023-03-30T16:24:22.586Z,23.33
2023-03-30T16:26:51.887Z,18.92
2023-03-30T16:29:23.721Z,20.23
2023-03-30T16:31:53.578Z,23.88
2023-03-30T16:34:23.680Z,18.77
2023-03-30T16:36:54.770Z,22.98
2023-03-30T16:39:26.659Z,20.05
2023-03-30T16:41:58.373Z,21.13
2023-03-30T16:44:27.480Z,22.75
2023-03-30T16:46:56.876Z,22.60
2023-03-30T16:49:27.063Z,21.63
2023-03-30T16:51:58.306Z,18.48
2023-03-30T16:57:03.290Z,27.50
2023-03-30T16:59:34.227Z,26.57
2023-03-30T17:02:04.074Z,24.40
2023-03-30T17:04:35.158Z,25.77
2023-03-30T17:09:36.522Z,24.45
2023-03-30T17:12:05.932Z,20.88
2023-03-30T17:14:35.264Z,25.80
2023-03-30T17:17:04.545Z,29.60
2023-03-30T17:19:33.830Z,22.38
2023-03-30T17:22:03.205Z,30.02
2023-03-30T17:24:33.845Z,28.15
2023-03-30T17:27:03.239Z,21.40
2023-03-30T17:29:33.235Z,30.90
2023-03-30T17:32:02.347Z,24.85
2023-03-30T17:34:31.514Z,25.45
2023-03-30T17:37:00.840Z,21.00
2023-03-30T17:39:30.012Z,24.50
2023-03-30T17:42:00.561Z,30.58
2023-03-30T17:44:29.802Z,30.30
2023-03-30T17:46:59.040Z,30.73
2023-03-30T17:49:28.319Z,43.80
2023-03-30T17:51:57.466Z,66.57
2023-03-30T17:54:27.643Z,69.65
2023-03-30T17:56:56.755Z,62.00
2023-03-30T17:59:27.413Z,67.45
2023-03-30T18:01:56.927Z,66.15
2023-03-30T18:04:29.264Z,65.32
2023-03-30T18:06:58.580Z,53.40
2023-03-30T18:09:27.823Z,47.63
2023-03-30T18:11:57.148Z,55.08
2023-03-30T18:14:30.678Z,55.25
2023-03-30T18:17:06.441Z,55.33
2023-03-30T18:19:35.866Z,66.88
2023-03-30T18:22:05.031Z,61.95
2023-03-30T18:24:34.201Z,62.63
2023-03-30T18:27:03.722Z,62.35
2023-03-30T18:29:35.517Z,55.28
2023-03-30T18:32:04.689Z,69.80
2023-03-30T18:34:34.422Z,68.78
2023-03-30T18:37:03.560Z,64.53
2023-03-30T18:39:32.956Z,48.90
2023-03-30T18:42:02.301Z,58.88
2023-03-30T18:44:31.447Z,43.15
2023-03-30T18:47:02.071Z,54.83
2023-03-30T18:49:31.497Z,53.30
2023-03-30T18:52:00.572Z,64.68
2023-03-30T18:54:29.630Z,66.47
2023-03-30T18:57:00.525Z,72.50
2023-03-30T18:59:30.261Z,69.57
2023-03-30T19:01:59.594Z,61.30
2023-03-30T19:04:30.204Z,56.55
2023-03-30T19:06:59.476Z,57.83
2023-03-30T19:09:42.199Z,50.88
2023-03-30T19:12:14.771Z,76.90
2023-03-30T19:14:43.898Z,83.85
2023-03-30T19:17:15.783Z,85.22
2023-03-30T19:19:46.461Z,82.22
2023-03-30T19:22:16.760Z,82.22
2023-03-30T19:24:46.042Z,76.40
2023-03-30T19:27:16.225Z,84.22
2023-03-30T19:29:45.341Z,93.63
2023-03-30T19:32:16.575Z,112.95
2023-03-30T19:34:48.182Z,104.82
2023-03-30T19:37:17.337Z,90.28
2023-03-30T19:39:46.799Z,89.80
2023-03-30T19:42:16.107Z,106.65
2023-03-30T19:44:45.393Z,113.30
2023-03-30T19:47:14.441Z,105.47
2023-03-30T19:49:43.588Z,98.00
2023-03-30T19:52:14.046Z,116.25
2023-03-30T19:54:43.143Z,105.20
2023-03-30T19:57:12.646Z,108.20
2023-03-30T19:59:41.980Z,99.30
2023-03-30T20:02:12.193Z,117.35
2023-03-30T20:04:41.569Z,117.70
2023-03-30T20:07:10.765Z,103.32
2023-03-30T20:09:42.177Z,99.57
2023-03-30T20:12:11.690Z,100.22
2023-03-30T20:14:41.371Z,108.28
2023-03-30T20:17:11.423Z,113.53
2023-03-30T20:19:40.877Z,119.13
2023-03-30T20:22:10.044Z,109.70
2023-03-30T20:24:40.708Z,112.18
2023-03-30T20:27:09.905Z,111.75
2023-03-30T20:29:39.072Z,131.52
2023-03-30T20:32:08.152Z,118.75
2023-03-30T20:34:37.231Z,118.47
2023-03-30T20:37:06.309Z,122.60
2023-03-30T20:39:37.268Z,132.65
2023-03-30T20:42:08.613Z,123.47
2023-03-30T20:47:11.136Z,113.43
2023-03-30T20:49:41.938Z,122.17
2023-03-30T20:52:11.840Z,108.03
2023-03-30T20:54:41.200Z,104.85
2023-03-30T20:57:12.081Z,108.03
2023-03-30T20:59:41.235Z,94.22
2023-03-30T21:02:13.002Z,112.18
2023-03-30T21:04:43.354Z,107.10
2023-03-30T21:07:13.011Z,95.93
2023-03-30T21:09:42.013Z,110.57
2023-03-30T21:12:12.509Z,78.90
2023-03-30T21:14:41.578Z,88.50
2023-03-30T21:17:11.145Z,78.47
2023-03-30T21:19:40.367Z,89.97
2023-03-30T21:22:09.372Z,99.30
2023-03-30T21:24:38.412Z,98.75
2023-03-30T21:27:07.437Z,92.07
2023-03-30T21:29:37.835Z,81.90
2023-03-30T21:32:07.112Z,100.97
2023-03-30T21:34:36.157Z,86.97
2023-03-30T21:37:05.333Z,92.40
2023-03-30T21:39:34.446Z,102.53
2023-03-30T21:42:05.303Z,87.47
2023-03-30T21:44:35.466Z,116.95
2023-03-30T21:47:06.062Z,90.25
2023-03-30T21:49:37.289Z,72.55
2023-03-30T21:52:06.308Z,84.90
2023-03-30T21:54:35.357Z,73.72
2023-03-30T21:57:05.786Z,84.35
2023-03-30T21:59:34.839Z,92.40
2023-03-30T22:02:05.524Z,83.63
2023-03-30T22:04:36.155Z,89.07
2023-03-30T22:07:05.714Z,81.72
2023-03-30T22:09:34.909Z,80.82
2023-03-30T22:12:04.424Z,74.13
2023-03-30T22:14:33.856Z,66.75
2023-03-30T22:17:03.162Z,75.32
2023-03-30T22:19:34.491Z,77.00
2023-03-30T22:22:06.234Z,57.17
2023-03-30T22:24:35.644Z,63.30
2023-03-30T22:27:04.880Z,65.47
2023-03-30T22:29:34.141Z,73.35
2023-03-30T22:32:03.595Z,77.80
2023-03-30T22:34:34.785Z,73.68
2023-03-30T22:37:04.135Z,62.60
2023-03-30T22:39:33.587Z,74.30
2023-03-30T22:42:02.831Z,68.45
2023-03-30T22:44:32.037Z,63.45
2023-03-30T22:47:01.382Z,64.43
2023-03-30T22:49:31.229Z,74.88
2023-03-30T22:52:02.936Z,68.65
2023-03-30T22:54:32.476Z,70.43
2023-03-30T22:57:01.801Z,67.47
2023-03-30T22:59:31.632Z,64.82
2023-03-30T23:02:01.020Z,54.70
2023-03-30T23:04:30.940Z,51.33
2023-03-30T23:07:04.201Z,51.92
2023-03-30T23:09:33.602Z,58.13
2023-03-30T23:12:03.350Z,54.30
2023-03-30T23:14:36.241Z,53.90
2023-03-30T23:17:05.465Z,61.35
2023-03-30T23:19:36.554Z,50.05
2023-03-30T23:22:08.166Z,60.53
2023-03-30T23:24:37.155Z,59.38
2023-03-30T23:27:06.312Z,61.63
2023-03-30T23:29:35.301Z,69.68
2023-03-30T23:32:04.491Z,62.08
2023-03-30T23:34:33.818Z,55.53
2023-03-30T23:37:02.870Z,50.08
2023-03-30T23:39:33.402Z,58.67
2023-03-30T23:42:02.643Z,48.08
2023-03-30T23:44:31.753Z,42.40
2023-03-30T23:47:00.783Z,45.42
2023-03-30T23:49:29.908Z,53.45
2023-03-30T23:51:59.028Z,53.05
2023-03-30T23:54:31.552Z,51.95
2023-03-30T23:57:04.587Z,48.72
2023-03-30T23:59:33.774Z,49.60
